Time;durP1;ratioP1;P1;durP2;ratioP2;P2;SDS_P1;SDS_P2;PMS_P1;PMS_P2;Temp;Humidity;BMP_temperature;BMP_pressure;BME280_temperature;BME280_humidity;BME280_pressure;Samples;Min_cycle;Max_cycle;Signal;HPM_P1;HPM_P2
2023/10/05 00:04:32;;;;;;;7.10;2.85;;;13.30;99.90;;;;;;5067046;28;20109;-79
2023/10/05 00:06:58;;;;;;;7.35;2.50;;;13.30;99.90;;;;;;5073767;28;20568;-80
2023/10/05 00:09:24;;;;;;;7.75;2.70;;;13.30;99.90;;;;;;5065788;28;20048;-79
2023/10/05 00:11:54;;;;;;;7.28;2.72;;;13.30;99.90;;;;;;5073036;28;20095;-79
2023/10/05 00:14:19;;;;;;;6.82;3.08;;;13.30;99.90;;;;;;5063643;28;20098;-79
2023/10/05 00:16:48;;;;;;;7.25;3.10;;;13.30;99.90;;;;;;5079021;28;20604;-79
2023/10/05 00:19:21;;;;;;;5.63;2.53;;;13.40;99.90;;;;;;5073226;28;20602;-79
2023/10/05 00:21:50;;;;;;;5.18;3.00;;;13.40;99.90;;;;;;5081801;28;20075;-79
2023/10/05 00:24:34;;;;;;;8.38;3.10;;;13.40;99.90;;;;;;5071853;28;20048;-80
2023/10/05 00:27:00;;;;;;;5.22;2.95;;;13.40;99.90;;;;;;5077154;28;20048;-79
2023/10/05 00:29:29;;;;;;;4.30;2.70;;;13.40;99.90;;;;;;5084599;28;20109;-80
2023/10/05 00:31:59;;;;;;;6.55;2.92;;;13.40;99.90;;;;;;5079445;28;20052;-80
2023/10/05 00:34:27;;;;;;;7.95;2.40;;;13.40;99.90;;;;;;5074562;28;20129;-79
2023/10/05 00:36:57;;;;;;;4.72;2.97;;;13.40;99.90;;;;;;5064430;28;20170;-80
2023/10/05 00:39:24;;;;;;;5.75;2.80;;;13.50;99.90;;;;;;5063417;28;20401;-80
2023/10/05 00:44:34;;;;;;;4.88;2.78;;;13.50;99.90;;;;;;5064159;28;20059;-79
2023/10/05 00:47:00;;;;;;;5.63;2.65;;;13.40;99.90;;;;;;5082029;28;20058;-80
2023/10/05 00:49:29;;;;;;;7.43;3.17;;;13.40;99.90;;;;;;5080064;28;20040;-80
2023/10/05 00:52:11;;;;;;;7.03;3.13;;;13.40;99.90;;;;;;5064132;28;20087;-80
2023/10/05 00:54:50;;;;;;;7.03;3.45;;;13.50;99.90;;;;;;5080848;28;20042;-80
2023/10/05 00:57:24;;;;;;;6.35;2.83;;;13.40;99.90;;;;;;5078675;28;20440;-81
2023/10/05 01:03:10;;;;;;;4.07;2.70;;;13.40;99.90;;;;;;5037788;28;20209;-80
2023/10/05 01:05:47;;;;;;;6.50;2.92;;;13.50;99.90;;;;;;5073960;28;20060;-80
2023/10/05 01:08:15;;;;;;;6.63;2.78;;;13.40;99.90;;;;;;5070528;28;20394;-80
2023/10/05 01:10:48;;;;;;;7.45;2.92;;;13.50;99.90;;;;;;5081000;28;20500;-80
2023/10/05 01:13:32;;;;;;;6.05;3.50;;;13.40;99.90;;;;;;5080965;28;20044;-80
2023/10/05 01:16:03;;;;;;;8.93;2.65;;;13.40;99.90;;;;;;5063103;28;20084;-80
2023/10/05 01:18:31;;;;;;;8.10;3.17;;;13.50;99.90;;;;;;5074116;28;20048;-80
2023/10/05 01:20:58;;;;;;;6.57;3.30;;;13.50;99.90;;;;;;5063021;28;20060;-80
2023/10/05 01:23:38;;;;;;;6.65;3.00;;;13.50;99.90;;;;;;5062113;28;20092;-80
2023/10/05 01:26:13;;;;;;;3.40;2.35;;;13.50;99.90;;;;;;5069870;28;20047;-80
2023/10/05 01:28:41;;;;;;;8.40;3.20;;;13.50;99.90;;;;;;5068140;28;20056;-80
2023/10/05 01:31:16;;;;;;;6.03;3.03;;;13.50;99.90;;;;;;5072550;28;20052;-80
2023/10/05 01:33:46;;;;;;;7.07;2.75;;;13.50;99.90;;;;;;5067345;28;20047;-80
2023/10/05 01:36:16;;;;;;;5.63;2.65;;;13.50;99.90;;;;;;5075611;28;20048;-80
2023/10/05 01:38:41;;;;;;;5.20;2.50;;;13.50;99.90;;;;;;5069006;28;20048;-79
2023/10/05 01:41:09;;;;;;;10.73;3.55;;;13.50;99.90;;;;;;5081774;28;20044;-80
2023/10/05 01:43:35;;;;;;;6.43;3.47;;;13.40;99.90;;;;;;5113204;27;20059;-80
2023/10/05 01:46:02;;;;;;;8.55;3.03;;;13.50;99.90;;;;;;5078521;28;20047;-80
2023/10/05 01:48:30;;;;;;;8.48;3.25;;;13.50;99.90;;;;;;5070468;28;20404;-80
2023/10/05 01:51:10;;;;;;;7.60;3.13;;;13.40;99.90;;;;;;5067772;28;20051;-80
2023/10/05 01:53:36;;;;;;;5.85;2.75;;;13.40;99.90;;;;;;5069898;28;20052;-80
2023/10/05 01:56:03;;;;;;;10.18;3.20;;;13.40;99.90;;;;;;5077309;28;20098;-80
2023/10/05 01:58:31;;;;;;;8.32;2.97;;;13.40;99.90;;;;;;5080622;28;20071;-80
2023/10/05 02:00:57;;;;;;;6.50;3.17;;;13.40;99.90;;;;;;5081164;28;20052;-78
2023/10/05 02:03:25;;;;;;;6.45;2.92;;;13.40;99.90;;;;;;5080933;28;20803;-79
2023/10/05 02:05:56;;;;;;;3.92;2.83;;;13.40;99.90;;;;;;5080929;28;20055;-79
2023/10/05 02:08:22;;;;;;;5.13;2.90;;;13.40;99.90;;;;;;5075330;28;20820;-80
2023/10/05 02:10:50;;;;;;;6.65;3.10;;;13.30;99.90;;;;;;5072646;28;20052;-80
2023/10/05 02:13:16;;;;;;;9.02;3.33;;;13.30;99.90;;;;;;5076266;28;20427;-80
2023/10/05 02:15:42;;;;;;;7.10;2.83;;;13.30;99.90;;;;;;5072349;28;20052;-79
2023/10/05 02:18:28;;;;;;;8.32;2.85;;;13.30;99.90;;;;;;5096003;27;20401;-80
2023/10/05 02:21:05;;;;;;;4.60;2.90;;;13.30;99.90;;;;;;5062754;28;20056;-80
2023/10/05 02:23:39;;;;;;;6.53;3.10;;;13.30;99.90;;;;;;5073772;28;20147;-79
2023/10/05 02:26:10;;;;;;;;;;;13.30;99.90;;;;;;5076337;28;20083;-80
2023/10/05 02:28:40;;;;;;;7.78;3.55;;;13.30;99.90;;;;;;5067438;28;19931;-80
2023/10/05 02:31:11;;;;;;;9.77;3.25;;;13.30;99.90;;;;;;5081710;28;20056;-80
2023/10/05 02:33:40;;;;;;;8.00;3.10;;;13.40;99.90;;;;;;5079975;28;20055;-80
2023/10/05 02:36:11;;;;;;;4.55;2.70;;;13.40;99.90;;;;;;5081147;28;20052;-80
2023/10/05 02:38:38;;;;;;;5.70;3.35;;;13.40;99.90;;;;;;5079359;28;20647;-79
2023/10/05 02:41:08;;;;;;;8.05;2.78;;;13.40;99.90;;;;;;5080675;28;20048;-80
2023/10/05 02:43:40;;;;;;;3.05;2.65;;;13.50;99.90;;;;;;5073815;28;20044;-80
2023/10/05 02:46:11;;;;;;;9.38;3.40;;;13.50;99.90;;;;;;5076965;28;20052;-80
2023/10/05 02:48:39;;;;;;;8.27;2.72;;;13.50;99.90;;;;;;5071721;28;20991;-80
2023/10/05 02:51:06;;;;;;;5.80;3.08;;;13.40;99.90;;;;;;5072202;28;20047;-80
2023/10/05 02:53:40;;;;;;;6.38;3.85;;;13.40;99.90;;;;;;5078850;28;20552;-80
2023/10/05 02:56:40;;;;;;;8.70;3.28;;;13.50;99.90;;;;;;5061245;28;20516;-80
2023/10/05 02:59:15;;;;;;;6.45;2.72;;;14.60;99.90;;;;;;5063119;28;20040;-81
2023/10/05 03:01:43;;;;;;;11.45;3.15;;;13.40;99.90;;;;;;5080923;28;20048;-80
2023/10/05 03:06:41;;;;;;;6.78;2.90;;;13.40;99.90;;;;;;5070196;28;20139;-80
2023/10/05 03:09:10;;;;;;;11.40;2.95;;;13.40;99.90;;;;;;5065223;28;21124;-80
2023/10/05 03:11:52;;;;;;;7.22;2.90;;;13.40;99.90;;;;;;5079530;28;20043;-80
2023/10/05 03:14:18;;;;;;;4.35;2.75;;;13.40;99.90;;;;;;5067096;28;20129;-80
2023/10/05 03:16:44;;;;;;;8.38;2.85;;;13.30;99.90;;;;;;5074650;28;20102;-80
2023/10/05 03:19:22;;;;;;;5.60;3.30;;;13.30;99.90;;;;;;5065231;28;20044;-80
2023/10/05 03:22:03;;;;;;;6.18;3.15;;;13.30;99.90;;;;;;5069827;28;20048;-80
2023/10/05 03:24:30;;;;;;;7.72;2.95;;;13.30;99.90;;;;;;5077292;28;20048;-80
2023/10/05 03:26:55;;;;;;;11.00;2.90;;;13.30;99.90;;;;;;5112187;27;20127;-80
2023/10/05 03:29:21;;;;;;;7.20;3.20;;;13.30;99.90;;;;;;5079166;28;20082;-80
2023/10/05 03:31:54;;;;;;;4.32;2.58;;;13.30;99.90;;;;;;5067429;28;20048;-80
2023/10/05 03:34:26;;;;;;;5.18;2.38;;;13.30;99.90;;;;;;5062527;28;20092;-80
2023/10/05 03:36:55;;;;;;;12.32;2.83;;;13.30;99.90;;;;;;5059349;28;20579;-81
2023/10/05 03:39:25;;;;;;;4.55;2.22;;;13.30;99.90;;;;;;5079065;28;20149;-80
2023/10/05 03:41:51;;;;;;;10.65;3.50;;;13.30;99.90;;;;;;5079135;28;20052;-80
2023/10/05 03:44:17;;;;;;;11.43;3.88;;;13.30;99.90;;;;;;5076216;28;20125;-80
2023/10/05 03:46:46;;;;;;;5.55;2.47;;;13.30;99.90;;;;;;5076757;28;20108;-79
2023/10/05 03:49:17;;;;;;;7.00;2.67;;;13.30;99.90;;;;;;5072676;28;20100;-80
2023/10/05 03:51:49;;;;;;;9.85;2.78;;;13.30;99.90;;;;;;5076665;28;20108;-81
2023/10/05 03:54:24;;;;;;;6.07;2.97;;;13.30;99.90;;;;;;5073325;28;20586;-80
2023/10/05 03:57:04;;;;;;;9.45;3.22;;;13.30;99.90;;;;;;5066708;28;20682;-81
2023/10/05 03:59:31;;;;;;;4.88;3.00;;;13.30;99.90;;;;;;5070662;28;20079;-81
2023/10/05 04:01:59;;;;;;;7.25;3.05;;;13.30;99.90;;;;;;5074934;28;20052;-80
2023/10/05 04:04:28;;;;;;;8.85;3.13;;;13.30;99.90;;;;;;5072514;28;20128;-80
2023/10/05 04:06:54;;;;;;;6.60;3.40;;;13.30;99.90;;;;;;5067571;28;20051;-80
2023/10/05 04:09:20;;;;;;;6.10;3.15;;;13.30;99.90;;;;;;5075400;28;20048;-80
2023/10/05 04:11:48;;;;;;;11.23;3.55;;;13.40;99.90;;;;;;5077061;28;20127;-80
2023/10/05 04:14:14;;;;;;;7.95;3.22;;;13.40;99.90;;;;;;5075913;28;20052;-81
2023/10/05 04:16:42;;;;;;;8.80;3.60;;;13.40;99.90;;;;;;5063205;28;20056;-80
2023/10/05 04:19:10;;;;;;;10.27;4.07;;;13.40;99.90;;;;;;5076104;28;20139;-79
2023/10/05 04:21:36;;;;;;;7.05;3.53;;;13.40;99.90;;;;;;5108103;28;20669;-80
2023/10/05 04:24:03;;;;;;;5.55;3.05;;;13.40;99.90;;;;;;5066910;28;20044;-80
2023/10/05 04:26:39;;;;;;;7.30;3.28;;;13.40;99.90;;;;;;5056826;28;20060;-80
2023/10/05 04:29:07;;;;;;;8.07;3.53;;;13.40;99.90;;;;;;5057266;28;20176;-80
2023/10/05 04:31:36;;;;;;;6.00;3.63;;;13.40;99.90;;;;;;5055899;28;20080;-79
2023/10/05 04:34:05;;;;;;;7.07;3.35;;;13.40;99.90;;;;;;5066761;28;20051;-80
2023/10/05 04:36:32;;;;;;;7.07;2.88;;;13.40;99.90;;;;;;5060418;28;20563;-79
2023/10/05 04:38:58;;;;;;;5.45;2.88;;;13.30;99.90;;;;;;5069558;28;20054;-80
2023/10/05 04:41:28;;;;;;;9.98;3.80;;;13.30;99.90;;;;;;5074851;28;20396;-79
2023/10/05 04:43:57;;;;;;;6.78;3.13;;;13.30;99.90;;;;;;5066654;28;20044;-80
2023/10/05 04:46:23;;;;;;;8.07;3.35;;;13.20;99.90;;;;;;5070372;28;20711;-80
2023/10/05 04:48:56;;;;;;;17.20;3.70;;;13.20;99.90;;;;;;5073372;28;20048;-79
2023/10/05 04:51:27;;;;;;;8.27;3.75;;;13.20;99.90;;;;;;5079066;28;20055;-80
2023/10/05 04:53:58;;;;;;;11.45;3.72;;;13.20;99.90;;;;;;5066062;28;20515;-79
2023/10/05 05:07:07;;;;;;;15.65;3.75;;;13.10;99.90;;;;;;5073509;28;20059;-80
2023/10/05 05:09:34;;;;;;;7.57;3.60;;;13.10;99.90;;;;;;5076757;28;20109;-80
2023/10/05 05:12:03;;;;;;;14.95;4.60;;;13.20;99.90;;;;;;5078192;28;20036;-80
2023/10/05 05:14:33;;;;;;;6.90;3.17;;;13.20;99.90;;;;;;5071887;28;20496;-80
2023/10/05 05:17:05;;;;;;;8.07;3.83;;;13.30;99.90;;;;;;5067337;28;20215;-80
2023/10/05 05:19:31;;;;;;;13.93;4.00;;;13.20;99.90;;;;;;5073583;28;20067;-80
2023/10/05 05:21:59;;;;;;;14.60;3.83;;;13.20;99.90;;;;;;5074240;28;20052;-80
2023/10/05 05:24:28;;;;;;;7.53;3.95;;;13.30;99.90;;;;;;5072843;28;20645;-80
2023/10/05 05:27:00;;;;;;;8.32;3.65;;;13.30;99.90;;;;;;5073615;28;20139;-80
2023/10/05 05:29:29;;;;;;;16.35;3.78;;;13.30;99.90;;;;;;5072887;28;20052;-80
2023/10/05 05:31:56;;;;;;;7.78;4.07;;;13.20;99.90;;;;;;5071145;28;20060;-80
2023/10/05 05:34:25;;;;;;;9.05;4.20;;;13.30;99.90;;;;;;5073202;28;20047;-80
2023/10/05 05:36:54;;;;;;;9.32;3.95;;;13.30;99.90;;;;;;5061117;28;20052;-80
2023/10/05 05:39:22;;;;;;;11.57;4.18;;;13.20;99.90;;;;;;5073557;28;20163;-80
2023/10/05 05:41:56;;;;;;;8.48;3.63;;;13.30;99.90;;;;;;5061341;28;20044;-80
2023/10/05 05:44:24;;;;;;;23.90;4.13;;;13.30;99.90;;;;;;5072795;28;20063;-79
2023/10/05 05:46:52;;;;;;;9.10;3.60;;;13.30;99.90;;;;;;5066816;28;20059;-80
2023/10/05 05:49:21;;;;;;;7.10;4.05;;;13.20;99.90;;;;;;5074434;28;20052;-79
2023/10/05 05:51:47;;;;;;;6.97;4.30;;;13.20;99.90;;;;;;5076543;28;20083;-80
2023/10/05 05:54:13;;;;;;;9.15;4.25;;;13.20;99.90;;;;;;5077876;28;20202;-80
2023/10/05 05:56:42;;;;;;;9.77;3.42;;;13.20;99.90;;;;;;5075360;28;20062;-80
2023/10/05 05:59:08;;;;;;;14.25;4.97;;;13.30;99.90;;;;;;5079169;28;20120;-79
2023/10/05 06:01:37;;;;;;;12.77;4.10;;;13.30;99.90;;;;;;5075062;28;20070;-80
2023/10/05 06:04:05;;;;;;;12.93;3.85;;;13.40;99.90;;;;;;5074041;28;20121;-80
2023/10/05 06:06:31;;;;;;;13.73;3.47;;;13.40;99.90;;;;;;5082066;28;20039;-80
2023/10/05 06:08:57;;;;;;;10.75;4.13;;;13.40;99.90;;;;;;5078016;28;20565;-79
2023/10/05 06:11:23;;;;;;;8.20;3.90;;;13.50;99.90;;;;;;5079799;28;20275;-79
2023/10/05 06:13:49;;;;;;;7.18;4.05;;;13.50;99.90;;;;;;5111001;27;20515;-81
2023/10/05 06:16:15;;;;;;;7.70;3.85;;;13.50;99.90;;;;;;5079442;28;21040;-80
2023/10/05 06:18:41;;;;;;;9.80;4.10;;;13.50;99.90;;;;;;5063712;28;20686;-80
2023/10/05 06:21:06;;;;;;;9.60;3.92;;;13.60;99.90;;;;;;5076101;28;20052;-80
2023/10/05 06:23:33;;;;;;;11.52;4.45;;;13.60;99.90;;;;;;5070100;28;20546;-80
2023/10/05 06:26:00;;;;;;;7.45;4.00;;;13.70;99.90;;;;;;5071906;28;20047;-79
2023/10/05 06:28:32;;;;;;;8.98;3.83;;;13.80;99.90;;;;;;5078492;28;20063;-80
2023/10/05 06:30:58;;;;;;;8.63;3.05;;;13.90;99.90;;;;;;5074357;28;20048;-79
2023/10/05 06:33:25;;;;;;;14.07;4.22;;;13.90;99.90;;;;;;5075825;28;20458;-80
2023/10/05 06:35:51;;;;;;;14.15;4.20;;;14.00;99.90;;;;;;5079859;28;20056;-80
2023/10/05 06:38:17;;;;;;;10.82;4.47;;;14.10;99.90;;;;;;5079259;28;20860;-80
2023/10/05 06:40:43;;;;;;;11.82;4.78;;;14.10;99.90;;;;;;5075225;28;20101;-80
2023/10/05 06:43:09;;;;;;;7.55;4.20;;;14.20;99.90;;;;;;5076792;28;20058;-80
2023/10/05 06:45:39;;;;;;;12.13;4.28;;;14.20;99.90;;;;;;5079157;28;20052;-80
2023/10/05 06:48:06;;;;;;;13.02;4.32;;;14.30;99.90;;;;;;5078693;28;20074;-80
2023/10/05 06:50:32;;;;;;;9.55;4.35;;;14.40;99.90;;;;;;5079949;28;20055;-80
2023/10/05 06:52:58;;;;;;;10.48;3.95;;;14.40;99.90;;;;;;5080450;28;20118;-81
2023/10/05 06:55:24;;;;;;;9.43;4.07;;;14.50;99.90;;;;;;5079930;28;20056;-79
2023/10/05 06:57:51;;;;;;;11.45;4.35;;;14.50;99.90;;;;;;5082102;28;20051;-80
2023/10/05 07:00:21;;;;;;;10.50;4.28;;;14.60;99.90;;;;;;5079872;28;20147;-80
2023/10/05 07:02:53;;;;;;;12.55;4.13;;;14.60;99.90;;;;;;5080323;28;20157;-80
2023/10/05 07:05:20;;;;;;;8.55;4.00;;;14.70;99.90;;;;;;5067646;28;20055;-81
2023/10/05 07:07:46;;;;;;;8.80;4.18;;;14.70;99.90;;;;;;5078505;28;20094;-84
2023/10/05 07:10:14;;;;;;;9.48;3.80;;;14.80;99.90;;;;;;5079335;28;20105;-83
2023/10/05 07:12:48;;;;;;;8.93;3.88;;;14.90;99.90;;;;;;5076003;28;20052;-82
2023/10/05 07:15:23;;;;;;;11.57;3.67;;;15.00;99.90;;;;;;5064274;28;20057;-82
2023/10/05 07:17:50;;;;;;;13.10;4.38;;;15.10;99.90;;;;;;5072140;28;20507;-82
2023/10/05 07:20:16;;;;;;;13.35;4.75;;;15.20;99.90;;;;;;5076917;28;20044;-81
2023/10/05 07:22:44;;;;;;;11.55;4.90;;;15.30;99.90;;;;;;5067300;28;20771;-81
2023/10/05 07:25:10;;;;;;;12.18;4.18;;;15.40;99.90;;;;;;5076715;28;20563;-81
2023/10/05 07:27:38;;;;;;;10.80;4.68;;;15.40;99.90;;;;;;5073154;28;20075;-80
2023/10/05 07:30:05;;;;;;;11.27;5.53;;;15.40;99.90;;;;;;5077438;28;20457;-81
2023/10/05 07:32:35;;;;;;;5.70;3.72;;;15.40;99.90;;;;;;5065978;28;20571;-81
2023/10/05 07:35:08;;;;;;;10.98;3.35;;;15.50;99.90;;;;;;5068217;28;20082;-81
2023/10/05 07:37:35;;;;;;;8.47;4.30;;;15.60;99.90;;;;;;5066370;28;20165;-80
2023/10/05 07:40:04;;;;;;;12.52;4.40;;;15.50;99.90;;;;;;5080511;28;20758;-81
2023/10/05 07:42:30;;;;;;;13.68;3.47;;;15.60;99.90;;;;;;5060317;28;20070;-81
2023/10/05 07:44:57;;;;;;;9.40;4.85;;;15.60;99.90;;;;;;5079861;28;20493;-80
2023/10/05 07:47:24;;;;;;;8.05;3.70;;;15.70;99.90;;;;;;5076168;28;20088;-80
2023/10/05 07:55:01;;;;;;;9.88;3.92;;;15.80;99.90;;;;;;5343306;23;20853;-72
2023/10/05 07:57:27;;;;;;;7.80;4.53;;;15.70;99.90;;;;;;4991149;28;20050;-78
2023/10/05 07:59:52;;;;;;;11.40;4.60;;;15.70;99.90;;;;;;5011120;28;20088;-78
2023/10/05 08:02:18;;;;;;;11.25;4.13;;;15.30;99.90;;;;;;5012099;28;20441;-74
2023/10/05 08:04:44;;;;;;;11.15;4.63;;;15.90;99.90;;;;;;5011075;28;20497;-75
2023/10/05 08:07:11;;;;;;;10.05;4.40;;;15.90;99.90;;;;;;5012365;28;20045;-75
2023/10/05 08:09:36;;;;;;;11.50;4.32;;;15.90;99.90;;;;;;5012379;28;20042;-74
2023/10/05 08:12:02;;;;;;;14.82;5.32;;;15.80;99.90;;;;;;5012286;28;20072;-78
2023/10/05 08:14:30;;;;;;;9.95;4.93;;;15.70;99.90;;;;;;4994922;28;20057;-80
2023/10/05 08:16:58;;;;;;;10.60;4.10;;;15.70;99.90;;;;;;5012991;28;20051;-79
2023/10/05 08:19:29;;;;;;;12.07;5.03;;;15.70;99.90;;;;;;5011724;28;20489;-78
2023/10/05 08:21:54;;;;;;;12.88;5.45;;;15.60;99.90;;;;;;5012469;28;20419;-82
2023/10/05 08:24:23;;;;;;;7.22;4.15;;;15.60;99.90;;;;;;5016152;28;20050;-81
2023/10/05 08:26:52;;;;;;;13.00;4.75;;;15.70;99.90;;;;;;5015489;28;20162;-80
2023/10/05 08:29:22;;;;;;;9.88;4.70;;;15.80;99.90;;;;;;5016050;28;20181;-79
2023/10/05 08:31:51;;;;;;;7.68;4.32;;;16.00;99.90;;;;;;5015966;28;20050;-82
2023/10/05 08:34:20;;;;;;;7.80;4.38;;;16.10;99.90;;;;;;5015915;28;20140;-77
2023/10/05 08:36:53;;;;;;;8.38;4.43;;;16.20;99.90;;;;;;5016037;28;20096;-82
2023/10/05 08:39:25;;;;;;;7.60;4.05;;;16.20;99.90;;;;;;5015949;28;20042;-77
2023/10/05 08:41:54;;;;;;;8.75;4.68;;;16.20;99.90;;;;;;5016349;28;20092;-80
2023/10/05 08:44:26;;;;;;;16.98;5.03;;;16.20;99.90;;;;;;5015860;28;20053;-80
2023/10/05 08:46:56;;;;;;;8.82;4.53;;;15.80;99.90;;;;;;5016188;28;20512;-81
2023/10/05 08:49:27;;;;;;;11.15;4.40;;;16.20;99.90;;;;;;5015879;28;20136;-81
2023/10/05 08:51:52;;;;;;;10.38;4.05;;;16.10;99.90;;;;;;5016056;28;20397;-80
2023/10/05 08:54:27;;;;;;;14.48;5.20;;;16.20;99.90;;;;;;5015661;28;20069;-79
2023/10/05 08:56:57;;;;;;;12.90;5.72;;;16.20;99.90;;;;;;5014556;28;20089;-80
2023/10/05 08:59:26;;;;;;;8.68;5.00;;;16.20;99.90;;;;;;5014751;28;20050;-81
2023/10/05 09:01:54;;;;;;;15.18;4.70;;;16.20;99.90;;;;;;5015546;28;20053;-83
2023/10/05 09:04:29;;;;;;;5.13;3.83;;;16.30;99.90;;;;;;5015311;28;20084;-81
2023/10/05 09:06:57;;;;;;;6.53;3.70;;;16.30;99.90;;;;;;5015193;28;20050;-82
2023/10/05 09:09:39;;;;;;;12.20;4.25;;;16.30;99.90;;;;;;5015167;28;20061;-82
2023/10/05 09:12:34;;;;;;;9.32;4.15;;;16.50;99.90;;;;;;5015283;28;20057;-79
2023/10/05 09:15:22;;;;;;;11.25;5.30;;;16.70;99.90;;;;;;5014101;28;20085;-80
2023/10/05 09:20:37;;;;;;;11.43;4.50;;;17.00;99.90;;;;;;5014376;28;20550;-79
2023/10/05 09:23:09;;;;;;;7.88;3.85;;;17.00;99.90;;;;;;5015052;28;20056;-81
2023/10/05 09:25:45;;;;;;;10.38;3.95;;;17.10;99.90;;;;;;5015179;28;20145;-80
2023/10/05 09:28:19;;;;;;;8.65;3.70;;;17.10;99.90;;;;;;5015087;28;20045;-80
2023/10/05 09:30:55;;;;;;;6.28;4.00;;;17.10;99.90;;;;;;5015638;28;20128;-81
2023/10/05 09:33:26;;;;;;;9.65;4.40;;;17.10;99.90;;;;;;5014711;28;20382;-79
2023/10/05 09:36:06;;;;;;;7.00;3.95;;;17.20;99.90;;;;;;5014475;28;20373;-81
2023/10/05 09:38:40;;;;;;;8.23;4.40;;;17.20;99.90;;;;;;5014676;28;20050;-83
2023/10/05 09:41:08;;;;;;;7.68;3.95;;;17.00;99.90;;;;;;5015060;28;20137;-80
2023/10/05 09:43:40;;;;;;;7.30;4.03;;;16.90;99.90;;;;;;5013822;28;20085;-82
2023/10/05 09:46:11;;;;;;;7.95;3.90;;;16.90;99.90;;;;;;5014888;28;20058;-81
2023/10/05 09:48:38;;;;;;;7.18;3.90;;;16.80;99.90;;;;;;5014886;28;20073;-81
2023/10/05 09:51:10;;;;;;;10.55;5.70;;;16.90;99.90;;;;;;5013515;28;20496;-79
2023/10/05 09:53:42;;;;;;;8.67;3.77;;;16.90;99.90;;;;;;5014035;28;20058;-80
2023/10/05 09:56:13;;;;;;;11.10;4.10;;;17.10;99.90;;;;;;5015031;28;20293;-80
2023/10/05 09:58:45;;;;;;;5.65;3.35;;;17.60;99.90;;;;;;5014301;28;20042;-80
2023/10/05 10:01:10;;;;;;;9.18;3.45;;;18.30;99.90;;;;;;5014427;28;20100;-80
2023/10/05 10:03:39;;;;;;;9.38;3.83;;;18.50;99.90;;;;;;5012495;28;20050;-81
2023/10/05 10:06:10;;;;;;;5.60;3.22;;;18.70;99.90;;;;;;5014396;28;20447;-80
2023/10/05 10:08:54;;;;;;;9.68;3.60;;;18.70;99.90;;;;;;5014183;28;20046;-81
2023/10/05 10:11:24;;;;;;;5.50;2.90;;;19.00;99.90;;;;;;5014433;28;20049;-80
2023/10/05 10:14:08;;;;;;;6.60;3.33;;;19.00;99.90;;;;;;5013921;28;20054;-80
2023/10/05 10:16:39;;;;;;;4.30;2.72;;;19.10;99.90;;;;;;5013638;28;20383;-80
2023/10/05 10:19:08;;;;;;;3.80;2.50;;;19.10;99.90;;;;;;5014225;28;20099;-80
2023/10/05 10:21:42;;;;;;;4.35;2.60;;;18.80;99.90;;;;;;5014102;28;20084;-83
2023/10/05 10:24:17;;;;;;;5.13;2.90;;;18.70;99.90;;;;;;5013818;28;20056;-81
2023/10/05 10:27:11;;;;;;;4.70;2.75;;;18.70;99.90;;;;;;5013293;28;20489;-79
2023/10/05 10:29:53;;;;;;;8.13;4.18;;;18.50;99.90;;;;;;4997077;28;20042;-82
2023/10/05 10:32:31;;;;;;;4.30;2.90;;;18.50;99.90;;;;;;5013819;28;20060;-81
2023/10/05 10:35:10;;;;;;;10.70;3.72;;;18.60;99.90;;;;;;5013560;28;20041;-81
2023/10/05 10:37:44;;;;;;;5.18;3.13;;;18.60;99.90;;;;;;5013656;28;20045;-81
2023/10/05 10:42:50;;;;;;;8.13;3.55;;;18.30;99.90;;;;;;5013496;28;20058;-80
2023/10/05 10:45:23;;;;;;;6.60;3.67;;;18.30;99.90;;;;;;5012926;28;20372;-80
2023/10/05 10:47:50;;;;;;;7.60;3.45;;;18.20;99.90;;;;;;5013805;28;20112;-80
2023/10/05 10:50:16;;;;;;;10.48;3.53;;;18.10;99.90;;;;;;5013571;28;20034;-81
2023/10/05 10:52:43;;;;;;;9.82;3.70;;;18.00;99.90;;;;;;5012684;28;20072;-75
2023/10/05 10:55:20;;;;;;;7.53;3.47;;;18.00;99.90;;;;;;5012028;28;20061;-83
2023/10/05 10:57:53;;;;;;;6.57;3.45;;;17.90;99.90;;;;;;5013573;28;20092;-81
2023/10/05 11:03:12;;;;;;;7.32;4.38;;;17.90;99.90;;;;;;5013597;28;20065;-82
2023/10/05 11:05:51;;;;;;;7.22;4.18;;;18.00;99.90;;;;;;5013447;28;20115;-82
2023/10/05 11:08:20;;;;;;;9.23;4.63;;;18.20;99.90;;;;;;5013455;28;20497;-81
2023/10/05 11:10:59;;;;;;;5.07;3.03;;;18.20;99.90;;;;;;5011837;28;20042;-81
2023/10/05 11:13:25;;;;;;;5.18;3.83;;;18.10;99.90;;;;;;5013323;28;20049;-82
2023/10/05 11:15:59;;;;;;;12.05;3.45;;;18.30;99.90;;;;;;5012386;28;20412;-83
2023/10/05 11:18:39;;;;;;;8.70;3.15;;;18.30;99.90;;;;;;5013221;28;20041;-82
2023/10/05 11:21:16;;;;;;;7.93;3.20;;;18.40;99.90;;;;;;5013388;28;20113;-82
2023/10/05 11:23:56;;;;;;;4.63;2.65;;;18.60;99.90;;;;;;5012877;28;20472;-82
2023/10/05 11:26:57;;;;;;;7.57;3.35;;;18.90;99.90;;;;;;5012319;28;20046;-82
2023/10/05 11:29:15;;;;;;;8.25;3.25;;;19.10;99.90;;;;;;5012574;28;20470;-82
2023/10/05 11:31:41;;;;;;;5.05;2.63;;;19.20;99.90;;;;;;5011817;28;20107;-83
2023/10/05 11:34:13;;;;;;;6.93;3.30;;;19.20;99.90;;;;;;5012720;28;20046;-82
2023/10/05 11:36:42;;;;;;;9.00;3.15;;;19.40;99.90;;;;;;5012827;28;20050;-83
2023/10/05 11:39:38;;;;;;;4.15;2.75;;;19.50;99.90;;;;;;4995821;28;20045;-81
2023/10/05 11:42:04;;;;;;;7.57;3.15;;;19.60;99.90;;;;;;5012666;28;20058;-82
2023/10/05 11:44:29;;;;;;;6.28;2.88;;;19.60;99.90;;;;;;5012605;28;20073;-81
2023/10/05 11:46:55;;;;;;;7.13;3.20;;;19.70;99.90;;;;;;5012606;28;20091;-82
2023/10/05 11:49:32;;;;;;;11.38;3.50;;;19.70;99.90;;;;;;5012547;28;20054;-83
2023/10/05 11:52:03;;;;;;;6.68;2.65;;;19.60;99.90;;;;;;5012983;28;20056;-83
2023/10/05 11:54:31;;;;;;;8.00;3.17;;;19.40;99.90;;;;;;5012871;28;20070;-82
2023/10/05 11:56:58;;;;;;;5.65;2.90;;;19.30;99.90;;;;;;5014668;28;20058;-82
2023/10/05 11:59:28;;;;;;;6.40;3.63;;;19.50;99.90;;;;;;5016526;28;20042;-82
2023/10/05 12:01:54;;;;;;;8.13;3.50;;;19.70;99.90;;;;;;5016489;28;20108;-83
2023/10/05 12:04:20;;;;;;;5.18;2.63;;;19.70;99.90;;;;;;5016905;28;20076;-82
2023/10/05 12:06:52;;;;;;;5.82;3.05;;;19.70;99.90;;;;;;5015445;28;20121;-82
2023/10/05 12:09:27;;;;;;;9.50;4.18;;;19.80;99.90;;;;;;5015588;28;20057;-83
2023/10/05 12:11:58;;;;;;;7.03;2.70;;;19.60;99.90;;;;;;5016765;28;20129;-83
2023/10/05 12:14:27;;;;;;;5.47;2.70;;;19.60;99.90;;;;;;5016251;28;20045;-82
2023/10/05 12:16:56;;;;;;;5.40;2.90;;;19.40;99.90;;;;;;5015798;28;20394;-83
2023/10/05 12:19:28;;;;;;;5.10;2.95;;;18.80;99.90;;;;;;5016381;28;20490;-82
2023/10/05 12:21:59;;;;;;;5.40;2.92;;;18.50;99.90;;;;;;5015145;28;20467;-81
2023/10/05 12:24:26;;;;;;;5.25;3.40;;;18.10;99.90;;;;;;5016419;28;20064;-79
2023/10/05 12:26:52;;;;;;;6.97;3.40;;;17.70;99.90;;;;;;5014744;28;20054;-76
2023/10/05 12:29:18;;;;;;;11.15;3.00;;;17.50;99.90;;;;;;4999282;28;20053;-77
2023/10/05 12:31:46;;;;;;;7.47;3.15;;;17.30;99.90;;;;;;5014583;28;20045;-81
2023/10/05 12:34:15;;;;;;;10.15;3.20;;;17.10;99.90;;;;;;5015572;28;20042;-81
2023/10/05 12:36:49;;;;;;;5.65;3.40;;;17.00;99.90;;;;;;5016167;28;20041;-80
2023/10/05 12:39:26;;;;;;;6.55;3.65;;;16.90;99.90;;;;;;5015974;28;20042;-79
2023/10/05 12:41:54;;;;;;;7.20;4.15;;;16.90;99.90;;;;;;5015817;28;20054;-78
2023/10/05 12:44:20;;;;;;;6.93;2.72;;;16.90;99.90;;;;;;5015596;28;20049;-79
2023/10/05 12:46:46;;;;;;;6.53;3.90;;;16.80;99.90;;;;;;5015680;28;20049;-79
2023/10/05 12:49:16;;;;;;;8.32;3.85;;;16.90;99.90;;;;;;5014481;28;20061;-84
2023/10/05 12:51:44;;;;;;;7.28;3.60;;;16.90;99.90;;;;;;5015549;28;20048;-83
2023/10/05 12:54:19;;;;;;;7.28;3.75;;;16.90;99.90;;;;;;5015677;28;20107;-78
2023/10/05 12:56:51;;;;;;;6.13;3.25;;;16.90;99.90;;;;;;5016150;28;20058;-83
2023/10/05 12:59:20;;;;;;;6.45;3.25;;;17.00;99.90;;;;;;5015434;28;20076;-83
2023/10/05 13:01:46;;;;;;;6.30;3.35;;;17.20;99.90;;;;;;5014924;28;20049;-83
2023/10/05 13:04:17;;;;;;;9.15;3.60;;;17.30;99.90;;;;;;5015271;28;20505;-83
2023/10/05 13:06:45;;;;;;;9.30;3.20;;;17.40;99.90;;;;;;5015230;28;20117;-82
2023/10/05 13:09:12;;;;;;;10.15;4.13;;;17.40;99.90;;;;;;5013577;28;20112;-85
2023/10/05 13:11:39;;;;;;;5.07;3.33;;;17.50;99.90;;;;;;5015101;28;20058;-82
2023/10/05 13:14:08;;;;;;;5.97;3.00;;;17.40;99.90;;;;;;5014457;28;20053;-82
2023/10/05 13:16:35;;;;;;;5.55;2.80;;;17.40;99.90;;;;;;5014722;28;20092;-82
2023/10/05 13:19:03;;;;;;;8.05;2.90;;;17.50;99.90;;;;;;5013676;28;20391;-81
2023/10/05 13:21:29;;;;;;;8.18;2.83;;;17.40;99.90;;;;;;5013550;28;20046;-81
2023/10/05 13:23:55;;;;;;;6.75;3.10;;;17.50;99.90;;;;;;5014747;28;20135;-81
2023/10/05 13:26:21;;;;;;;4.72;2.25;;;17.50;99.90;;;;;;5014933;28;20042;-81
2023/10/05 13:28:48;;;;;;;5.32;2.92;;;17.50;99.90;;;;;;5015124;28;20104;-81
2023/10/05 13:31:14;;;;;;;6.07;2.75;;;17.60;99.90;;;;;;5014665;28;20049;-81
2023/10/05 13:33:40;;;;;;;6.13;2.90;;;17.70;99.90;;;;;;5014788;28;20056;-81
2023/10/05 13:36:15;;;;;;;4.47;2.75;;;17.70;99.90;;;;;;5015049;28;20053;-82